sensor_id;sensor_type;location;lat;lon;timestamp;temperature;humidity
6375;DHT22;35400;45.472;-122.822;2022-12-07T00:03:47;6.50;99.90
6375;DHT22;35400;45.472;-122.822;2022-12-07T00:06:16;6.50;99.90
6375;DHT22;35400;45.472;-122.822;2022-12-07T00:08:43;6.50;99.90
6375;DHT22;35400;45.472;-122.822;2022-12-07T00:11:13;6.50;99.90
6375;DHT22;35400;45.472;-122.822;2022-12-07T00:13:41;6.40;99.90
6375;DHT22;35400;45.472;-122.822;2022-12-07T00:16:11;6.40;99.90
6375;DHT22;35400;45.472;-122.822;2022-12-07T00:18:38;6.40;99.90
6375;DHT22;35400;45.472;-122.822;2022-12-07T00:21:08;6.30;99.90
6375;DHT22;35400;45.472;-122.822;2022-12-07T00:23:36;6.30;99.90
6375;DHT22;35400;45.472;-122.822;2022-12-07T00:26:08;6.30;99.90
6375;DHT22;35400;45.472;-122.822;2022-12-07T00:28:36;6.30;99.90
6375;DHT22;35400;45.472;-122.822;2022-12-07T00:31:09;6.30;99.90
6375;DHT22;35400;45.472;-122.822;2022-12-07T00:33:37;6.30;99.90
6375;DHT22;35400;45.472;-122.822;2022-12-07T00:36:07;6.20;99.90
6375;DHT22;35400;45.472;-122.822;2022-12-07T00:38:36;6.20;99.90
6375;DHT22;35400;45.472;-122.822;2022-12-07T00:41:13;6.20;99.90
6375;DHT22;35400;45.472;-122.822;2022-12-07T00:43:42;6.20;99.90
6375;DHT22;35400;45.472;-122.822;2022-12-07T00:46:10;6.20;99.90
6375;DHT22;35400;45.472;-122.822;2022-12-07T00:48:38;6.10;99.90
6375;DHT22;35400;45.472;-122.822;2022-12-07T00:51:06;6.10;99.90
6375;DHT22;35400;45.472;-122.822;2022-12-07T00:53:37;6.10;99.90
6375;DHT22;35400;45.472;-122.822;2022-12-07T00:56:24;6.10;99.90
6375;DHT22;35400;45.472;-122.822;2022-12-07T00:58:57;6.10;99.90
6375;DHT22;35400;45.472;-122.822;2022-12-07T01:01:28;6.10;99.90
6375;DHT22;35400;45.472;-122.822;2022-12-07T01:03:55;6.00;99.90
6375;DHT22;35400;45.472;-122.822;2022-12-07T01:06:24;6.00;99.90
6375;DHT22;35400;45.472;-122.822;2022-12-07T01:08:51;6.00;99.90
6375;DHT22;35400;45.472;-122.822;2022-12-07T01:11:20;6.00;99.90
6375;DHT22;35400;45.472;-122.822;2022-12-07T01:13:50;6.00;99.90
6375;DHT22;35400;45.472;-122.822;2022-12-07T01:16:18;5.90;99.90
6375;DHT22;35400;45.472;-122.822;2022-12-07T01:18:48;5.90;99.90
6375;DHT22;35400;45.472;-122.822;2022-12-07T01:21:16;5.80;99.90
6375;DHT22;35400;45.472;-122.822;2022-12-07T01:23:44;5.80;99.90
6375;DHT22;35400;45.472;-122.822;2022-12-07T01:26:13;5.80;99.90
6375;DHT22;35400;45.472;-122.822;2022-12-07T01:28:41;5.80;99.90
6375;DHT22;35400;45.472;-122.822;2022-12-07T01:31:13;5.80;99.90
6375;DHT22;35400;45.472;-122.822;2022-12-07T01:33:42;5.80;99.90
6375;DHT22;35400;45.472;-122.822;2022-12-07T01:36:21;5.70;99.90
6375;DHT22;35400;45.472;-122.822;2022-12-07T01:38:51;5.70;99.90
6375;DHT22;35400;45.472;-122.822;2022-12-07T01:41:20;5.70;99.90
6375;DHT22;35400;45.472;-122.822;2022-12-07T01:44:07;5.70;99.90
6375;DHT22;35400;45.472;-122.822;2022-12-07T01:46:35;5.70;99.90
6375;DHT22;35400;45.472;-122.822;2022-12-07T01:49:04;5.60;99.90
6375;DHT22;35400;45.472;-122.822;2022-12-07T01:51:32;5.60;99.90
6375;DHT22;35400;45.472;-122.822;2022-12-07T01:54:00;5.60;99.90
6375;DHT22;35400;45.472;-122.822;2022-12-07T01:56:29;5.60;99.90
6375;DHT22;35400;45.472;-122.822;2022-12-07T01:58:57;5.50;99.90
6375;DHT22;35400;45.472;-122.822;2022-12-07T02:01:25;5.50;99.90
6375;DHT22;35400;45.472;-122.822;2022-12-07T02:03:52;5.50;99.90
6375;DHT22;35400;45.472;-122.822;2022-12-07T02:06:23;5.50;99.90
6375;DHT22;35400;45.472;-122.822;2022-12-07T02:08:51;5.50;99.90
6375;DHT22;35400;45.472;-122.822;2022-12-07T02:11:18;5.50;99.90
6375;DHT22;35400;45.472;-122.822;2022-12-07T02:13:46;5.50;99.90
6375;DHT22;35400;45.472;-122.822;2022-12-07T02:16:41;5.50;99.90
6375;DHT22;35400;45.472;-122.822;2022-12-07T02:22:34;5.40;99.90
6375;DHT22;35400;45.472;-122.822;2022-12-07T02:28:12;5.40;99.90
6375;DHT22;35400;45.472;-122.822;2022-12-07T02:30:48;5.40;99.90
6375;DHT22;35400;45.472;-122.822;2022-12-07T02:33:35;5.40;99.90
6375;DHT22;35400;45.472;-122.822;2022-12-07T02:36:26;5.40;99.90
6375;DHT22;35400;45.472;-122.822;2022-12-07T02:39:07;5.40;99.90
6375;DHT22;35400;45.472;-122.822;2022-12-07T02:41:48;5.40;99.90
6375;DHT22;35400;45.472;-122.822;2022-12-07T02:44:23;5.40;99.90
6375;DHT22;35400;45.472;-122.822;2022-12-07T02:47:03;5.40;99.90
6375;DHT22;35400;45.472;-122.822;2022-12-07T02:49:31;5.40;99.90
6375;DHT22;35400;45.472;-122.822;2022-12-07T02:51:58;5.40;99.90
6375;DHT22;35400;45.472;-122.822;2022-12-07T02:54:26;5.30;99.90
6375;DHT22;35400;45.472;-122.822;2022-12-07T02:57:03;5.30;99.90
6375;DHT22;35400;45.472;-122.822;2022-12-07T03:00:08;5.40;99.90
6375;DHT22;35400;45.472;-122.822;2022-12-07T03:08:30;5.30;99.90
6375;DHT22;35400;45.472;-122.822;2022-12-07T03:18:56;5.30;99.90
6375;DHT22;35400;45.472;-122.822;2022-12-07T03:21:38;5.30;99.90
6375;DHT22;35400;45.472;-122.822;2022-12-07T03:24:10;5.20;99.90
6375;DHT22;35400;45.472;-122.822;2022-12-07T03:26:42;5.20;99.90
6375;DHT22;35400;45.472;-122.822;2022-12-07T03:29:17;5.20;99.90
6375;DHT22;35400;45.472;-122.822;2022-12-07T03:31:51;5.20;99.90
6375;DHT22;35400;45.472;-122.822;2022-12-07T03:37:47;5.20;99.90
6375;DHT22;35400;45.472;-122.822;2022-12-07T03:40:17;5.20;99.90
6375;DHT22;35400;45.472;-122.822;2022-12-07T03:42:46;5.20;99.90
6375;DHT22;35400;45.472;-122.822;2022-12-07T03:45:14;5.20;99.90
6375;DHT22;35400;45.472;-122.822;2022-12-07T03:50:38;5.10;99.90
6375;DHT22;35400;45.472;-122.822;2022-12-07T03:53:38;5.10;99.90
6375;DHT22;35400;45.472;-122.822;2022-12-07T03:56:07;5.10;99.90
6375;DHT22;35400;45.472;-122.822;2022-12-07T03:58:36;5.10;99.90
6375;DHT22;35400;45.472;-122.822;2022-12-07T04:01:03;5.10;99.90
6375;DHT22;35400;45.472;-122.822;2022-12-07T04:03:30;5.10;99.90
6375;DHT22;35400;45.472;-122.822;2022-12-07T04:05:57;5.10;99.90
6375;DHT22;35400;45.472;-122.822;2022-12-07T04:08:25;5.10;99.90
6375;DHT22;35400;45.472;-122.822;2022-12-07T04:10:52;5.10;99.90
6375;DHT22;35400;45.472;-122.822;2022-12-07T04:13:19;5.10;99.90
6375;DHT22;35400;45.472;-122.822;2022-12-07T04:15:46;5.10;99.90
6375;DHT22;35400;45.472;-122.822;2022-12-07T04:18:13;5.10;99.90
6375;DHT22;35400;45.472;-122.822;2022-12-07T04:20:40;5.10;99.90
6375;DHT22;35400;45.472;-122.822;2022-12-07T04:23:07;5.00;99.90
6375;DHT22;35400;45.472;-122.822;2022-12-07T04:25:34;5.00;99.90
6375;DHT22;35400;45.472;-122.822;2022-12-07T04:28:01;5.10;99.90
6375;DHT22;35400;45.472;-122.822;2022-12-07T04:30:28;5.00;99.90
6375;DHT22;35400;45.472;-122.822;2022-12-07T04:32:55;5.00;99.90
6375;DHT22;35400;45.472;-122.822;2022-12-07T04:35:25;5.00;99.90
6375;DHT22;35400;45.472;-122.822;2022-12-07T04:37:52;5.00;99.90
6375;DHT22;35400;45.472;-122.822;2022-12-07T04:40:19;5.00;99.90
6375;DHT22;35400;45.472;-122.822;2022-12-07T04:42:46;5.00;99.90
6375;DHT22;35400;45.472;-122.822;2022-12-07T04:45:13;5.00;99.90
6375;DHT22;35400;45.472;-122.822;2022-12-07T04:47:40;5.00;99.90
6375;DHT22;35400;45.472;-122.822;2022-12-07T04:50:08;5.00;99.90
6375;DHT22;35400;45.472;-122.822;2022-12-07T04:52:35;5.00;99.90
6375;DHT22;35400;45.472;-122.822;2022-12-07T04:55:02;5.00;99.90
6375;DHT22;35400;45.472;-122.822;2022-12-07T04:57:29;5.00;99.90
6375;DHT22;35400;45.472;-122.822;2022-12-07T04:59:56;5.00;99.90
6375;DHT22;35400;45.472;-122.822;2022-12-07T05:02:23;5.00;99.90
6375;DHT22;35400;45.472;-122.822;2022-12-07T05:04:50;5.00;99.90
6375;DHT22;35400;45.472;-122.822;2022-12-07T05:07:17;5.00;99.90
6375;DHT22;35400;45.472;-122.822;2022-12-07T05:09:45;5.00;99.90
6375;DHT22;35400;45.472;-122.822;2022-12-07T05:12:13;5.00;99.90
6375;DHT22;35400;45.472;-122.822;2022-12-07T05:14:40;5.00;99.90
6375;DHT22;35400;45.472;-122.822;2022-12-07T05:17:07;5.00;99.90
6375;DHT22;35400;45.472;-122.822;2022-12-07T05:19:34;5.00;99.90
6375;DHT22;35400;45.472;-122.822;2022-12-07T05:22:00;5.00;99.90
6375;DHT22;35400;45.472;-122.822;2022-12-07T05:24:27;5.00;99.90
6375;DHT22;35400;45.472;-122.822;2022-12-07T05:26:54;5.00;99.90
6375;DHT22;35400;45.472;-122.822;2022-12-07T05:29:21;5.00;99.90
6375;DHT22;35400;45.472;-122.822;2022-12-07T05:31:48;5.00;99.90
6375;DHT22;35400;45.472;-122.822;2022-12-07T05:34:15;5.00;99.90
6375;DHT22;35400;45.472;-122.822;2022-12-07T05:36:42;5.00;99.90
6375;DHT22;35400;45.472;-122.822;2022-12-07T05:39:10;5.00;99.90
6375;DHT22;35400;45.472;-122.822;2022-12-07T05:41:37;5.00;99.90
6375;DHT22;35400;45.472;-122.822;2022-12-07T05:44:22;5.00;99.90
6375;DHT22;35400;45.472;-122.822;2022-12-07T05:46:49;5.00;99.90
6375;DHT22;35400;45.472;-122.822;2022-12-07T05:49:16;5.00;99.90
6375;DHT22;35400;45.472;-122.822;2022-12-07T05:51:42;5.00;99.90
6375;DHT22;35400;45.472;-122.822;2022-12-07T05:54:10;5.00;99.90
6375;DHT22;35400;45.472;-122.822;2022-12-07T05:56:37;5.00;99.90
6375;DHT22;35400;45.472;-122.822;2022-12-07T05:59:03;5.00;99.90
6375;DHT22;35400;45.472;-122.822;2022-12-07T06:04:21;5.00;99.90
6375;DHT22;35400;45.472;-122.822;2022-12-07T06:06:49;4.90;99.90
6375;DHT22;35400;45.472;-122.822;2022-12-07T06:09:16;4.90;99.90
6375;DHT22;35400;45.472;-122.822;2022-12-07T06:11:44;4.90;99.90
6375;DHT22;35400;45.472;-122.822;2022-12-07T06:14:30;4.90;99.90
6375;DHT22;35400;45.472;-122.822;2022-12-07T06:16:57;4.90;99.90
6375;DHT22;35400;45.472;-122.822;2022-12-07T06:19:24;4.90;99.90
6375;DHT22;35400;45.472;-122.822;2022-12-07T06:21:51;4.90;99.90
6375;DHT22;35400;45.472;-122.822;2022-12-07T06:24:18;4.90;99.90
6375;DHT22;35400;45.472;-122.822;2022-12-07T06:26:45;4.90;99.90
6375;DHT22;35400;45.472;-122.822;2022-12-07T06:29:13;4.90;99.90
6375;DHT22;35400;45.472;-122.822;2022-12-07T06:31:40;4.90;99.90
6375;DHT22;35400;45.472;-122.822;2022-12-07T06:34:11;4.90;99.90
6375;DHT22;35400;45.472;-122.822;2022-12-07T06:36:39;4.90;99.90
6375;DHT22;35400;45.472;-122.822;2022-12-07T06:39:07;4.90;99.90
6375;DHT22;35400;45.472;-122.822;2022-12-07T06:41:36;4.90;99.90
6375;DHT22;35400;45.472;-122.822;2022-12-07T06:44:04;4.90;99.90
6375;DHT22;35400;45.472;-122.822;2022-12-07T06:46:31;4.90;99.90
6375;DHT22;35400;45.472;-122.822;2022-12-07T06:48:58;4.90;99.90
6375;DHT22;35400;45.472;-122.822;2022-12-07T06:51:25;4.90;99.90
6375;DHT22;35400;45.472;-122.822;2022-12-07T06:53:53;4.90;99.90
6375;DHT22;35400;45.472;-122.822;2022-12-07T06:56:20;4.90;99.90
6375;DHT22;35400;45.472;-122.822;2022-12-07T06:58:47;4.90;99.90
6375;DHT22;35400;45.472;-122.822;2022-12-07T07:01:16;4.90;99.90
6375;DHT22;35400;45.472;-122.822;2022-12-07T07:03:45;4.90;99.90
6375;DHT22;35400;45.472;-122.822;2022-12-07T07:06:13;4.90;99.90
6375;DHT22;35400;45.472;-122.822;2022-12-07T07:08:41;4.90;99.90
6375;DHT22;35400;45.472;-122.822;2022-12-07T07:11:11;4.90;99.90
6375;DHT22;35400;45.472;-122.822;2022-12-07T07:13:38;4.90;99.90
6375;DHT22;35400;45.472;-122.822;2022-12-07T07:16:06;4.90;99.90
6375;DHT22;35400;45.472;-122.822;2022-12-07T07:18:34;4.90;99.90
6375;DHT22;35400;45.472;-122.822;2022-12-07T07:21:01;4.90;99.90
6375;DHT22;35400;45.472;-122.822;2022-12-07T07:23:29;4.90;99.90
6375;DHT22;35400;45.472;-122.822;2022-12-07T07:25:56;4.90;99.90
6375;DHT22;35400;45.472;-122.822;2022-12-07T07:28:23;4.90;99.90
6375;DHT22;35400;45.472;-122.822;2022-12-07T07:30:50;4.90;99.90
6375;DHT22;35400;45.472;-122.822;2022-12-07T07:33:17;4.80;99.90
6375;DHT22;35400;45.472;-122.822;2022-12-07T07:35:45;4.80;99.90
6375;DHT22;35400;45.472;-122.822;2022-12-07T07:38:12;4.80;99.90
6375;DHT22;35400;45.472;-122.822;2022-12-07T07:40:39;4.80;99.90
6375;DHT22;35400;45.472;-122.822;2022-12-07T07:43:06;4.80;99.90
6375;DHT22;35400;45.472;-122.822;2022-12-07T07:45:33;4.80;99.90
6375;DHT22;35400;45.472;-122.822;2022-12-07T07:48:00;4.80;99.90
6375;DHT22;35400;45.472;-122.822;2022-12-07T07:50:28;4.80;99.90
6375;DHT22;35400;45.472;-122.822;2022-12-07T07:52:57;4.80;99.90
6375;DHT22;35400;45.472;-122.822;2022-12-07T07:55:24;4.80;99.90
6375;DHT22;35400;45.472;-122.822;2022-12-07T07:57:51;4.80;99.90
6375;DHT22;35400;45.472;-122.822;2022-12-07T08:00:19;4.80;99.90
6375;DHT22;35400;45.472;-122.822;2022-12-07T08:02:46;4.80;99.90
6375;DHT22;35400;45.472;-122.822;2022-12-07T08:05:14;4.80;99.90
6375;DHT22;35400;45.472;-122.822;2022-12-07T08:07:41;4.80;99.90
6375;DHT22;35400;45.472;-122.822;2022-12-07T08:10:11;4.80;99.90
6375;DHT22;35400;45.472;-122.822;2022-12-07T08:12:40;4.80;99.90
6375;DHT22;35400;45.472;-122.822;2022-12-07T08:15:30;4.80;99.90
6375;DHT22;35400;45.472;-122.822;2022-12-07T08:17:58;4.80;99.90
6375;DHT22;35400;45.472;-122.822;2022-12-07T08:20:25;4.80;99.90
6375;DHT22;35400;45.472;-122.822;2022-12-07T08:22:52;4.80;99.90
6375;DHT22;35400;45.472;-122.822;2022-12-07T08:25:20;4.80;99.90
6375;DHT22;35400;45.472;-122.822;2022-12-07T08:27:49;4.80;99.90
6375;DHT22;35400;45.472;-122.822;2022-12-07T08:30:16;4.80;99.90
6375;DHT22;35400;45.472;-122.822;2022-12-07T08:32:47;4.80;99.90
6375;DHT22;35400;45.472;-122.822;2022-12-07T08:35:15;4.80;99.90
6375;DHT22;35400;45.472;-122.822;2022-12-07T08:37:42;4.80;99.90
6375;DHT22;35400;45.472;-122.822;2022-12-07T08:40:11;4.80;99.90
6375;DHT22;35400;45.472;-122.822;2022-12-07T08:42:48;4.80;99.90
6375;DHT22;35400;45.472;-122.822;2022-12-07T08:45:16;4.80;99.90
6375;DHT22;35400;45.472;-122.822;2022-12-07T08:48:03;4.80;99.90
6375;DHT22;35400;45.472;-122.822;2022-12-07T08:50:32;4.80;99.90
6375;DHT22;35400;45.472;-122.822;2022-12-07T08:53:01;4.80;99.90
6375;DHT22;35400;45.472;-122.822;2022-12-07T08:55:29;4.80;99.90
6375;DHT22;35400;45.472;-122.822;2022-12-07T08:57:58;4.80;99.90
6375;DHT22;35400;45.472;-122.822;2022-12-07T09:00:26;4.80;99.90
6375;DHT22;35400;45.472;-122.822;2022-12-07T09:02:54;4.80;99.90
6375;DHT22;35400;45.472;-122.822;2022-12-07T09:05:21;4.80;99.90
6375;DHT22;35400;45.472;-122.822;2022-12-07T09:07:52;4.80;99.90
6375;DHT22;35400;45.472;-122.822;2022-12-07T09:10:22;4.80;99.90
6375;DHT22;35400;45.472;-122.822;2022-12-07T09:12:49;4.80;99.90
6375;DHT22;35400;45.472;-122.822;2022-12-07T09:15:17;4.80;99.90
6375;DHT22;35400;45.472;-122.822;2022-12-07T09:17:44;4.80;99.90
6375;DHT22;35400;45.472;-122.822;2022-12-07T09:20:12;4.80;99.90
6375;DHT22;35400;45.472;-122.822;2022-12-07T09:22:39;4.80;99.90
6375;DHT22;35400;45.472;-122.822;2022-12-07T09:25:06;4.80;99.90
6375;DHT22;35400;45.472;-122.822;2022-12-07T09:27:33;4.80;99.90
6375;DHT22;35400;45.472;-122.822;2022-12-07T09:30:01;4.80;99.90
6375;DHT22;35400;45.472;-122.822;2022-12-07T09:32:28;4.80;99.90
6375;DHT22;35400;45.472;-122.822;2022-12-07T09:34:55;4.80;99.90
6375;DHT22;35400;45.472;-122.822;2022-12-07T09:37:22;4.80;99.90
6375;DHT22;35400;45.472;-122.822;2022-12-07T09:39:49;4.90;99.90
6375;DHT22;35400;45.472;-122.822;2022-12-07T09:42:38;4.90;99.90
6375;DHT22;35400;45.472;-122.822;2022-12-07T09:45:36;4.90;99.90
6375;DHT22;35400;45.472;-122.822;2022-12-07T09:48:04;4.90;99.90
6375;DHT22;35400;45.472;-122.822;2022-12-07T09:50:31;4.90;99.90
6375;DHT22;35400;45.472;-122.822;2022-12-07T09:53:14;4.90;99.90
6375;DHT22;35400;45.472;-122.822;2022-12-07T09:55:43;4.90;99.90
6375;DHT22;35400;45.472;-122.822;2022-12-07T09:58:21;4.90;99.90
6375;DHT22;35400;45.472;-122.822;2022-12-07T10:00:52;4.90;99.90
6375;DHT22;35400;45.472;-122.822;2022-12-07T10:03:20;4.90;99.90
6375;DHT22;35400;45.472;-122.822;2022-12-07T10:05:50;4.90;99.90
6375;DHT22;35400;45.472;-122.822;2022-12-07T10:08:18;4.90;99.90
6375;DHT22;35400;45.472;-122.822;2022-12-07T10:10:49;4.90;99.90
6375;DHT22;35400;45.472;-122.822;2022-12-07T10:13:43;4.90;99.90
6375;DHT22;35400;45.472;-122.822;2022-12-07T10:16:39;4.90;99.90
6375;DHT22;35400;45.472;-122.822;2022-12-07T10:19:27;4.90;99.90
6375;DHT22;35400;45.472;-122.822;2022-12-07T10:22:15;4.90;99.90
6375;DHT22;35400;45.472;-122.822;2022-12-07T10:24:46;4.90;99.90
6375;DHT22;35400;45.472;-122.822;2022-12-07T10:27:32;4.90;99.90
6375;DHT22;35400;45.472;-122.822;2022-12-07T10:30:00;4.90;99.90
6375;DHT22;35400;45.472;-122.822;2022-12-07T10:32:36;4.90;99.90
6375;DHT22;35400;45.472;-122.822;2022-12-07T10:35:32;4.90;99.90
6375;DHT22;35400;45.472;-122.822;2022-12-07T10:37:59;4.90;99.90
6375;DHT22;35400;45.472;-122.822;2022-12-07T10:40:31;4.90;99.90
6375;DHT22;35400;45.472;-122.822;2022-12-07T10:43:24;4.90;99.90
6375;DHT22;35400;45.472;-122.822;2022-12-07T10:48:46;4.80;99.90
6375;DHT22;35400;45.472;-122.822;2022-12-07T10:51:27;4.80;99.90
6375;DHT22;35400;45.472;-122.822;2022-12-07T10:54:36;4.80;99.90
6375;DHT22;35400;45.472;-122.822;2022-12-07T11:00:19;4.80;99.90
6375;DHT22;35400;45.472;-122.822;2022-12-07T11:05:56;4.80;99.90
6375;DHT22;35400;45.472;-122.822;2022-12-07T11:08:36;4.80;99.90
6375;DHT22;35400;45.472;-122.822;2022-12-07T11:11:20;4.80;99.90
6375;DHT22;35400;45.472;-122.822;2022-12-07T11:14:05;4.80;99.90
6375;DHT22;35400;45.472;-122.822;2022-12-07T11:22:16;4.70;99.90
6375;DHT22;35400;45.472;-122.822;2022-12-07T11:25:02;4.70;99.90
6375;DHT22;35400;45.472;-122.822;2022-12-07T11:30:39;4.60;99.90
6375;DHT22;35400;45.472;-122.822;2022-12-07T11:38:17;4.60;99.90
6375;DHT22;35400;45.472;-122.822;2022-12-07T11:40:48;4.60;99.90
6375;DHT22;35400;45.472;-122.822;2022-12-07T11:43:27;4.50;99.90
6375;DHT22;35400;45.472;-122.822;2022-12-07T11:46:05;4.50;99.90
6375;DHT22;35400;45.472;-122.822;2022-12-07T11:48:49;4.50;99.90
6375;DHT22;35400;45.472;-122.822;2022-12-07T11:51:20;4.50;99.90
6375;DHT22;35400;45.472;-122.822;2022-12-07T11:54:34;4.50;99.90
6375;DHT22;35400;45.472;-122.822;2022-12-07T11:56:36;4.50;99.90
6375;DHT22;35400;45.472;-122.822;2022-12-07T11:59:35;4.40;99.90
6375;DHT22;35400;45.472;-122.822;2022-12-07T12:02:25;4.40;99.90
6375;DHT22;35400;45.472;-122.822;2022-12-07T12:05:12;4.40;99.90
6375;DHT22;35400;45.472;-122.822;2022-12-07T12:07:42;4.40;99.90
6375;DHT22;35400;45.472;-122.822;2022-12-07T12:10:21;4.40;99.90
6375;DHT22;35400;45.472;-122.822;2022-12-07T12:18:55;4.40;99.90
6375;DHT22;35400;45.472;-122.822;2022-12-07T12:21:30;4.40;99.90
6375;DHT22;35400;45.472;-122.822;2022-12-07T12:24:24;4.40;99.90
6375;DHT22;35400;45.472;-122.822;2022-12-07T12:27:06;4.40;99.90
6375;DHT22;35400;45.472;-122.822;2022-12-07T12:29:39;4.40;99.90
6375;DHT22;35400;45.472;-122.822;2022-12-07T12:35:48;4.40;99.90
6375;DHT22;35400;45.472;-122.822;2022-12-07T12:37:52;4.40;99.90
6375;DHT22;35400;45.472;-122.822;2022-12-07T12:42:58;4.40;99.90
6375;DHT22;35400;45.472;-122.822;2022-12-07T12:45:30;4.40;99.90
6375;DHT22;35400;45.472;-122.822;2022-12-07T12:50:33;4.40;99.90
6375;DHT22;35400;45.472;-122.822;2022-12-07T12:58:38;4.40;99.90
6375;DHT22;35400;45.472;-122.822;2022-12-07T13:03:56;4.40;99.90
6375;DHT22;35400;45.472;-122.822;2022-12-07T13:08:56;4.40;99.90
6375;DHT22;35400;45.472;-122.822;2022-12-07T13:11:34;4.40;99.90
6375;DHT22;35400;45.472;-122.822;2022-12-07T13:20:04;4.40;99.90
6375;DHT22;35400;45.472;-122.822;2022-12-07T13:25:07;4.40;99.90
6375;DHT22;35400;45.472;-122.822;2022-12-07T13:27:38;4.40;99.90
6375;DHT22;35400;45.472;-122.822;2022-12-07T13:30:16;4.40;99.90
6375;DHT22;35400;45.472;-122.822;2022-12-07T13:32:50;4.40;99.90
6375;DHT22;35400;45.472;-122.822;2022-12-07T13:35:35;4.40;99.90
6375;DHT22;35400;45.472;-122.822;2022-12-07T13:38:25;4.40;99.90
6375;DHT22;35400;45.472;-122.822;2022-12-07T13:41:20;4.40;99.90
6375;DHT22;35400;45.472;-122.822;2022-12-07T13:44:09;4.40;99.90
6375;DHT22;35400;45.472;-122.822;2022-12-07T13:49:31;4.40;99.90
6375;DHT22;35400;45.472;-122.822;2022-12-07T13:52:28;4.40;99.90
6375;DHT22;35400;45.472;-122.822;2022-12-07T13:55:14;4.40;99.90
6375;DHT22;35400;45.472;-122.822;2022-12-07T13:57:42;4.40;99.90
6375;DHT22;35400;45.472;-122.822;2022-12-07T14:00:16;4.40;99.90
6375;DHT22;35400;45.472;-122.822;2022-12-07T14:03:20;4.40;99.90
6375;DHT22;35400;45.472;-122.822;2022-12-07T14:06:10;4.40;99.90
6375;DHT22;35400;45.472;-122.822;2022-12-07T14:08:42;4.40;99.90
6375;DHT22;35400;45.472;-122.822;2022-12-07T14:11:17;4.40;99.90
6375;DHT22;35400;45.472;-122.822;2022-12-07T14:13:52;4.40;99.90
6375;DHT22;35400;45.472;-122.822;2022-12-07T14:18:59;4.40;99.90
6375;DHT22;35400;45.472;-122.822;2022-12-07T14:21:29;4.40;99.90
6375;DHT22;35400;45.472;-122.822;2022-12-07T14:24:22;4.40;99.90
6375;DHT22;35400;45.472;-122.822;2022-12-07T14:26:50;4.40;99.90
6375;DHT22;35400;45.472;-122.822;2022-12-07T14:29:32;4.40;99.90
6375;DHT22;35400;45.472;-122.822;2022-12-07T14:32:17;4.40;99.90
6375;DHT22;35400;45.472;-122.822;2022-12-07T14:35:13;4.40;99.90
6375;DHT22;35400;45.472;-122.822;2022-12-07T14:37:42;4.40;99.90
6375;DHT22;35400;45.472;-122.822;2022-12-07T14:40:18;4.40;99.90
6375;DHT22;35400;45.472;-122.822;2022-12-07T14:42:47;4.40;99.90
6375;DHT22;35400;45.472;-122.822;2022-12-07T14:45:18;4.40;99.90
6375;DHT22;35400;45.472;-122.822;2022-12-07T14:47:46;4.30;99.90
6375;DHT22;35400;45.472;-122.822;2022-12-07T14:50:18;4.30;99.90
6375;DHT22;35400;45.472;-122.822;2022-12-07T14:52:59;4.30;99.90
6375;DHT22;35400;45.472;-122.822;2022-12-07T14:55:28;4.30;99.90
6375;DHT22;35400;45.472;-122.822;2022-12-07T14:57:55;4.30;99.90
6375;DHT22;35400;45.472;-122.822;2022-12-07T15:00:25;4.30;99.90
6375;DHT22;35400;45.472;-122.822;2022-12-07T15:02:52;4.30;99.90
6375;DHT22;35400;45.472;-122.822;2022-12-07T15:05:20;4.30;99.90
6375;DHT22;35400;45.472;-122.822;2022-12-07T15:07:48;4.30;99.90
6375;DHT22;35400;45.472;-122.822;2022-12-07T15:10:18;4.30;99.90
6375;DHT22;35400;45.472;-122.822;2022-12-07T15:12:46;4.30;99.90
6375;DHT22;35400;45.472;-122.822;2022-12-07T15:15:13;4.30;99.90
6375;DHT22;35400;45.472;-122.822;2022-12-07T15:17:40;4.30;99.90
6375;DHT22;35400;45.472;-122.822;2022-12-07T15:20:15;4.30;99.90
6375;DHT22;35400;45.472;-122.822;2022-12-07T15:22:43;4.30;99.90
6375;DHT22;35400;45.472;-122.822;2022-12-07T15:25:13;4.30;99.90
6375;DHT22;35400;45.472;-122.822;2022-12-07T15:27:40;4.30;99.90
6375;DHT22;35400;45.472;-122.822;2022-12-07T15:30:08;4.30;99.90
6375;DHT22;35400;45.472;-122.822;2022-12-07T15:32:35;4.30;99.90
6375;DHT22;35400;45.472;-122.822;2022-12-07T15:35:02;4.40;99.90
6375;DHT22;35400;45.472;-122.822;2022-12-07T15:37:29;4.30;99.90
6375;DHT22;35400;45.472;-122.822;2022-12-07T15:39:55;4.30;99.90
6375;DHT22;35400;45.472;-122.822;2022-12-07T15:42:22;4.40;99.90
6375;DHT22;35400;45.472;-122.822;2022-12-07T15:44:49;4.30;99.90
6375;DHT22;35400;45.472;-122.822;2022-12-07T15:47:36;4.30;99.90
6375;DHT22;35400;45.472;-122.822;2022-12-07T15:50:09;4.40;99.90
6375;DHT22;35400;45.472;-122.822;2022-12-07T15:52:37;4.30;99.90
6375;DHT22;35400;45.472;-122.822;2022-12-07T15:55:04;4.30;99.90
6375;DHT22;35400;45.472;-122.822;2022-12-07T15:57:32;4.30;99.90
6375;DHT22;35400;45.472;-122.822;2022-12-07T16:00:00;4.30;99.90
6375;DHT22;35400;45.472;-122.822;2022-12-07T16:02:27;4.30;99.90
6375;DHT22;35400;45.472;-122.822;2022-12-07T16:04:53;4.20;99.90
6375;DHT22;35400;45.472;-122.822;2022-12-07T16:07:20;4.30;99.90
6375;DHT22;35400;45.472;-122.822;2022-12-07T16:09:48;4.20;99.90
6375;DHT22;35400;45.472;-122.822;2022-12-07T16:12:16;4.30;99.90
6375;DHT22;35400;45.472;-122.822;2022-12-07T16:14:43;4.30;99.90
6375;DHT22;35400;45.472;-122.822;2022-12-07T16:17:10;4.30;99.90
6375;DHT22;35400;45.472;-122.822;2022-12-07T16:19:37;4.30;99.90
6375;DHT22;35400;45.472;-122.822;2022-12-07T16:22:05;4.30;99.90
6375;DHT22;35400;45.472;-122.822;2022-12-07T16:24:32;4.30;99.90
6375;DHT22;35400;45.472;-122.822;2022-12-07T16:26:59;4.30;99.90
6375;DHT22;35400;45.472;-122.822;2022-12-07T16:29:26;4.30;99.90
6375;DHT22;35400;45.472;-122.822;2022-12-07T16:31:53;4.30;99.90
6375;DHT22;35400;45.472;-122.822;2022-12-07T16:34:20;4.40;99.90
6375;DHT22;35400;45.472;-122.822;2022-12-07T16:36:46;4.40;99.90
6375;DHT22;35400;45.472;-122.822;2022-12-07T16:39:13;4.40;99.90
6375;DHT22;35400;45.472;-122.822;2022-12-07T16:41:40;4.30;99.90
6375;DHT22;35400;45.472;-122.822;2022-12-07T16:44:10;4.30;99.90
6375;DHT22;35400;45.472;-122.822;2022-12-07T16:46:38;4.30;99.90
6375;DHT22;35400;45.472;-122.822;2022-12-07T16:49:05;4.30;99.90
6375;DHT22;35400;45.472;-122.822;2022-12-07T16:51:32;4.20;99.90
6375;DHT22;35400;45.472;-122.822;2022-12-07T16:54:02;4.30;99.90
6375;DHT22;35400;45.472;-122.822;2022-12-07T16:56:28;4.30;99.90
6375;DHT22;35400;45.472;-122.822;2022-12-07T16:58:58;4.30;99.90
6375;DHT22;35400;45.472;-122.822;2022-12-07T17:01:25;4.30;99.90
6375;DHT22;35400;45.472;-122.822;2022-12-07T17:03:54;4.30;99.90
6375;DHT22;35400;45.472;-122.822;2022-12-07T17:06:26;4.30;99.90
6375;DHT22;35400;45.472;-122.822;2022-12-07T17:08:54;4.30;99.90
6375;DHT22;35400;45.472;-122.822;2022-12-07T17:11:26;4.30;99.90
6375;DHT22;35400;45.472;-122.822;2022-12-07T17:13:53;4.30;99.90
6375;DHT22;35400;45.472;-122.822;2022-12-07T17:16:39;4.30;99.90